sensor_id;sensor_type;location;lat;lon;timestamp;P1;durP1;ratioP1;P2;durP2;ratioP2
52734;SDS011;38631;47.572;10.704;2022-10-16T00:02:21;2.95;;;2.05;;
52734;SDS011;38631;47.572;10.704;2022-10-16T00:04:46;4.75;;;2.00;;
52734;SDS011;38631;47.572;10.704;2022-10-16T00:07:11;2.35;;;1.65;;
52734;SDS011;38631;47.572;10.704;2022-10-16T00:09:37;4.45;;;1.77;;
52734;SDS011;38631;47.572;10.704;2022-10-16T00:12:02;2.47;;;1.63;;
52734;SDS011;38631;47.572;10.704;2022-10-16T00:14:29;3.20;;;1.88;;
52734;SDS011;38631;47.572;10.704;2022-10-16T00:16:55;4.15;;;1.80;;
52734;SDS011;38631;47.572;10.704;2022-10-16T00:19:20;2.85;;;1.55;;
52734;SDS011;38631;47.572;10.704;2022-10-16T00:21:45;4.68;;;1.50;;
52734;SDS011;38631;47.572;10.704;2022-10-16T00:24:11;2.90;;;1.65;;
52734;SDS011;38631;47.572;10.704;2022-10-16T00:26:37;5.13;;;1.40;;
52734;SDS011;38631;47.572;10.704;2022-10-16T00:29:04;3.35;;;1.20;;
52734;SDS011;38631;47.572;10.704;2022-10-16T00:31:30;5.82;;;1.67;;
52734;SDS011;38631;47.572;10.704;2022-10-16T00:33:55;2.03;;;1.20;;
52734;SDS011;38631;47.572;10.704;2022-10-16T00:36:22;1.55;;;1.00;;
52734;SDS011;38631;47.572;10.704;2022-10-16T00:38:52;2.67;;;1.50;;
52734;SDS011;38631;47.572;10.704;2022-10-16T00:41:20;3.58;;;1.55;;
52734;SDS011;38631;47.572;10.704;2022-10-16T00:43:48;3.45;;;1.85;;
52734;SDS011;38631;47.572;10.704;2022-10-16T00:49:01;3.13;;;1.38;;
52734;SDS011;38631;47.572;10.704;2022-10-16T00:53:57;9.32;;;1.30;;
52734;SDS011;38631;47.572;10.704;2022-10-16T00:56:23;3.25;;;1.20;;
52734;SDS011;38631;47.572;10.704;2022-10-16T00:58:48;1.88;;;1.23;;
52734;SDS011;38631;47.572;10.704;2022-10-16T01:01:14;1.52;;;0.98;;
52734;SDS011;38631;47.572;10.704;2022-10-16T01:03:39;2.72;;;1.33;;
52734;SDS011;38631;47.572;10.704;2022-10-16T01:14:19;2.38;;;1.48;;
52734;SDS011;38631;47.572;10.704;2022-10-16T01:17:06;1.92;;;1.30;;
52734;SDS011;38631;47.572;10.704;2022-10-16T01:19:44;1.98;;;1.67;;
52734;SDS011;38631;47.572;10.704;2022-10-16T01:22:21;1.67;;;1.30;;
52734;SDS011;38631;47.572;10.704;2022-10-16T01:24:50;1.85;;;1.05;;
52734;SDS011;38631;47.572;10.704;2022-10-16T01:27:21;2.28;;;1.20;;
52734;SDS011;38631;47.572;10.704;2022-10-16T01:29:53;2.40;;;1.30;;
52734;SDS011;38631;47.572;10.704;2022-10-16T01:34:54;1.92;;;1.50;;
52734;SDS011;38631;47.572;10.704;2022-10-16T01:38:02;3.08;;;1.10;;
52734;SDS011;38631;47.572;10.704;2022-10-16T01:40:44;2.08;;;1.48;;
52734;SDS011;38631;47.572;10.704;2022-10-16T01:43:12;2.33;;;1.30;;
52734;SDS011;38631;47.572;10.704;2022-10-16T01:45:42;8.23;;;1.85;;
52734;SDS011;38631;47.572;10.704;2022-10-16T01:48:09;5.25;;;1.50;;
52734;SDS011;38631;47.572;10.704;2022-10-16T01:50:41;2.38;;;1.17;;
52734;SDS011;38631;47.572;10.704;2022-10-16T01:53:09;4.70;;;1.35;;
52734;SDS011;38631;47.572;10.704;2022-10-16T01:55:39;2.15;;;1.30;;
52734;SDS011;38631;47.572;10.704;2022-10-16T01:58:10;3.22;;;1.40;;
52734;SDS011;38631;47.572;10.704;2022-10-16T02:00:38;2.15;;;1.40;;
52734;SDS011;38631;47.572;10.704;2022-10-16T02:03:07;2.10;;;1.10;;
52734;SDS011;38631;47.572;10.704;2022-10-16T02:05:36;2.38;;;1.35;;
52734;SDS011;38631;47.572;10.704;2022-10-16T02:08:05;2.83;;;1.33;;
52734;SDS011;38631;47.572;10.704;2022-10-16T02:10:31;3.05;;;1.45;;
52734;SDS011;38631;47.572;10.704;2022-10-16T02:13:06;2.67;;;0.82;;
52734;SDS011;38631;47.572;10.704;2022-10-16T02:15:34;1.48;;;1.10;;
52734;SDS011;38631;47.572;10.704;2022-10-16T02:18:01;1.73;;;1.17;;
52734;SDS011;38631;47.572;10.704;2022-10-16T02:20:28;1.40;;;0.90;;
52734;SDS011;38631;47.572;10.704;2022-10-16T02:22:59;1.48;;;1.00;;
52734;SDS011;38631;47.572;10.704;2022-10-16T02:25:29;2.22;;;1.10;;
52734;SDS011;38631;47.572;10.704;2022-10-16T02:30:27;1.60;;;1.10;;
52734;SDS011;38631;47.572;10.704;2022-10-16T02:32:58;1.75;;;0.80;;
52734;SDS011;38631;47.572;10.704;2022-10-16T02:35:25;2.08;;;1.10;;
52734;SDS011;38631;47.572;10.704;2022-10-16T02:37:52;2.92;;;0.95;;
52734;SDS011;38631;47.572;10.704;2022-10-16T02:40:19;4.03;;;1.00;;
52734;SDS011;38631;47.572;10.704;2022-10-16T02:42:49;1.52;;;1.00;;
52734;SDS011;38631;47.572;10.704;2022-10-16T02:45:15;1.30;;;0.93;;
52734;SDS011;38631;47.572;10.704;2022-10-16T02:47:41;2.10;;;1.25;;
52734;SDS011;38631;47.572;10.704;2022-10-16T02:50:07;2.45;;;1.02;;
52734;SDS011;38631;47.572;10.704;2022-10-16T02:52:32;2.17;;;0.88;;
52734;SDS011;38631;47.572;10.704;2022-10-16T02:54:57;4.82;;;1.10;;
52734;SDS011;38631;47.572;10.704;2022-10-16T02:57:23;1.83;;;1.10;;
52734;SDS011;38631;47.572;10.704;2022-10-16T02:59:48;2.85;;;1.33;;
52734;SDS011;38631;47.572;10.704;2022-10-16T03:02:14;1.73;;;0.98;;
52734;SDS011;38631;47.572;10.704;2022-10-16T03:04:39;2.15;;;0.85;;
52734;SDS011;38631;47.572;10.704;2022-10-16T03:07:04;1.48;;;0.90;;
52734;SDS011;38631;47.572;10.704;2022-10-16T03:09:30;2.58;;;1.00;;
52734;SDS011;38631;47.572;10.704;2022-10-16T03:11:55;1.30;;;0.98;;
52734;SDS011;38631;47.572;10.704;2022-10-16T03:14:20;2.65;;;1.27;;
52734;SDS011;38631;47.572;10.704;2022-10-16T03:16:46;2.08;;;1.20;;
52734;SDS011;38631;47.572;10.704;2022-10-16T03:19:11;2.42;;;1.75;;
52734;SDS011;38631;47.572;10.704;2022-10-16T03:21:37;1.63;;;1.02;;
52734;SDS011;38631;47.572;10.704;2022-10-16T03:24:02;4.63;;;1.00;;
52734;SDS011;38631;47.572;10.704;2022-10-16T03:26:28;1.30;;;0.90;;
52734;SDS011;38631;47.572;10.704;2022-10-16T03:28:53;1.90;;;1.00;;
52734;SDS011;38631;47.572;10.704;2022-10-16T03:31:18;1.38;;;0.90;;
52734;SDS011;38631;47.572;10.704;2022-10-16T03:33:44;1.10;;;0.70;;
52734;SDS011;38631;47.572;10.704;2022-10-16T03:36:09;2.83;;;1.02;;
52734;SDS011;38631;47.572;10.704;2022-10-16T03:38:34;3.20;;;1.23;;
52734;SDS011;38631;47.572;10.704;2022-10-16T03:41:00;3.20;;;1.15;;
52734;SDS011;38631;47.572;10.704;2022-10-16T03:43:25;6.05;;;1.30;;
52734;SDS011;38631;47.572;10.704;2022-10-16T03:45:51;2.60;;;1.30;;
52734;SDS011;38631;47.572;10.704;2022-10-16T03:48:16;2.17;;;1.33;;
52734;SDS011;38631;47.572;10.704;2022-10-16T03:50:45;2.53;;;1.27;;
52734;SDS011;38631;47.572;10.704;2022-10-16T03:53:12;1.77;;;1.20;;
52734;SDS011;38631;47.572;10.704;2022-10-16T03:55:38;10.00;;;1.50;;
52734;SDS011;38631;47.572;10.704;2022-10-16T03:58:07;2.70;;;1.00;;
52734;SDS011;38631;47.572;10.704;2022-10-16T04:00:32;1.52;;;0.90;;
52734;SDS011;38631;47.572;10.704;2022-10-16T04:02:57;1.60;;;1.02;;
52734;SDS011;38631;47.572;10.704;2022-10-16T04:05:23;2.38;;;1.40;;
52734;SDS011;38631;47.572;10.704;2022-10-16T04:07:48;5.57;;;1.00;;
52734;SDS011;38631;47.572;10.704;2022-10-16T04:10:14;2.65;;;1.30;;
52734;SDS011;38631;47.572;10.704;2022-10-16T04:12:39;2.25;;;1.38;;
52734;SDS011;38631;47.572;10.704;2022-10-16T04:15:04;2.22;;;1.40;;
52734;SDS011;38631;47.572;10.704;2022-10-16T04:17:30;2.28;;;1.50;;
52734;SDS011;38631;47.572;10.704;2022-10-16T04:19:55;1.30;;;0.95;;
52734;SDS011;38631;47.572;10.704;2022-10-16T04:22:21;3.17;;;1.42;;
52734;SDS011;38631;47.572;10.704;2022-10-16T04:24:46;5.57;;;1.13;;
52734;SDS011;38631;47.572;10.704;2022-10-16T04:27:11;1.48;;;1.00;;
52734;SDS011;38631;47.572;10.704;2022-10-16T04:29:37;2.05;;;1.10;;
52734;SDS011;38631;47.572;10.704;2022-10-16T04:32:02;2.92;;;1.25;;
52734;SDS011;38631;47.572;10.704;2022-10-16T04:34:27;4.43;;;1.40;;
52734;SDS011;38631;47.572;10.704;2022-10-16T04:36:53;2.03;;;1.17;;
52734;SDS011;38631;47.572;10.704;2022-10-16T04:39:18;1.73;;;1.33;;
52734;SDS011;38631;47.572;10.704;2022-10-16T04:41:43;2.45;;;1.60;;
52734;SDS011;38631;47.572;10.704;2022-10-16T04:44:09;2.15;;;1.85;;
52734;SDS011;38631;47.572;10.704;2022-10-16T04:46:34;1.88;;;1.63;;
52734;SDS011;38631;47.572;10.704;2022-10-16T04:49:00;2.08;;;1.40;;
52734;SDS011;38631;47.572;10.704;2022-10-16T04:51:25;2.88;;;1.60;;
52734;SDS011;38631;47.572;10.704;2022-10-16T04:53:52;3.85;;;1.40;;
52734;SDS011;38631;47.572;10.704;2022-10-16T04:56:18;5.45;;;2.05;;
52734;SDS011;38631;47.572;10.704;2022-10-16T04:58:43;1.80;;;1.50;;
52734;SDS011;38631;47.572;10.704;2022-10-16T05:01:08;2.60;;;1.80;;
52734;SDS011;38631;47.572;10.704;2022-10-16T05:03:34;2.28;;;1.38;;
52734;SDS011;38631;47.572;10.704;2022-10-16T05:05:59;1.98;;;1.60;;
52734;SDS011;38631;47.572;10.704;2022-10-16T05:08:24;2.40;;;1.60;;
52734;SDS011;38631;47.572;10.704;2022-10-16T05:10:50;2.03;;;1.73;;
52734;SDS011;38631;47.572;10.704;2022-10-16T05:13:15;2.03;;;1.30;;
52734;SDS011;38631;47.572;10.704;2022-10-16T05:15:41;1.98;;;1.52;;
52734;SDS011;38631;47.572;10.704;2022-10-16T05:18:06;2.15;;;1.65;;
52734;SDS011;38631;47.572;10.704;2022-10-16T05:20:31;1.67;;;1.33;;
52734;SDS011;38631;47.572;10.704;2022-10-16T05:22:57;2.13;;;1.50;;
52734;SDS011;38631;47.572;10.704;2022-10-16T05:25:22;2.35;;;1.60;;
52734;SDS011;38631;47.572;10.704;2022-10-16T05:27:48;3.45;;;2.28;;
52734;SDS011;38631;47.572;10.704;2022-10-16T05:30:14;2.35;;;1.40;;
52734;SDS011;38631;47.572;10.704;2022-10-16T05:32:40;3.05;;;1.80;;
52734;SDS011;38631;47.572;10.704;2022-10-16T05:35:06;3.95;;;1.65;;
52734;SDS011;38631;47.572;10.704;2022-10-16T05:37:31;2.78;;;1.70;;
52734;SDS011;38631;47.572;10.704;2022-10-16T05:39:57;2.80;;;1.83;;
52734;SDS011;38631;47.572;10.704;2022-10-16T05:42:22;2.17;;;1.20;;
52734;SDS011;38631;47.572;10.704;2022-10-16T05:44:47;2.13;;;1.58;;
52734;SDS011;38631;47.572;10.704;2022-10-16T05:47:13;2.33;;;1.77;;
52734;SDS011;38631;47.572;10.704;2022-10-16T05:49:39;3.50;;;1.52;;
52734;SDS011;38631;47.572;10.704;2022-10-16T05:52:04;2.08;;;1.25;;
52734;SDS011;38631;47.572;10.704;2022-10-16T05:54:30;3.03;;;1.55;;
52734;SDS011;38631;47.572;10.704;2022-10-16T05:56:55;1.45;;;1.20;;
52734;SDS011;38631;47.572;10.704;2022-10-16T05:59:20;2.60;;;1.70;;
52734;SDS011;38631;47.572;10.704;2022-10-16T06:01:46;2.03;;;1.50;;
52734;SDS011;38631;47.572;10.704;2022-10-16T06:04:11;3.72;;;1.70;;
52734;SDS011;38631;47.572;10.704;2022-10-16T06:06:36;2.95;;;1.77;;
52734;SDS011;38631;47.572;10.704;2022-10-16T06:09:02;4.28;;;1.48;;
52734;SDS011;38631;47.572;10.704;2022-10-16T06:11:28;3.38;;;1.50;;
52734;SDS011;38631;47.572;10.704;2022-10-16T06:13:56;2.65;;;1.98;;
52734;SDS011;38631;47.572;10.704;2022-10-16T06:16:23;2.47;;;1.75;;
52734;SDS011;38631;47.572;10.704;2022-10-16T06:18:50;2.70;;;1.77;;
52734;SDS011;38631;47.572;10.704;2022-10-16T06:21:25;2.42;;;1.90;;
52734;SDS011;38631;47.572;10.704;2022-10-16T06:23:51;2.53;;;1.70;;
52734;SDS011;38631;47.572;10.704;2022-10-16T06:26:18;1.70;;;1.60;;
52734;SDS011;38631;47.572;10.704;2022-10-16T06:28:45;3.47;;;1.45;;
52734;SDS011;38631;47.572;10.704;2022-10-16T06:31:11;3.35;;;1.30;;
52734;SDS011;38631;47.572;10.704;2022-10-16T06:33:37;1.52;;;1.23;;
52734;SDS011;38631;47.572;10.704;2022-10-16T06:36:04;2.28;;;1.30;;
52734;SDS011;38631;47.572;10.704;2022-10-16T06:38:34;1.65;;;1.15;;
52734;SDS011;38631;47.572;10.704;2022-10-16T06:41:00;1.50;;;1.23;;
52734;SDS011;38631;47.572;10.704;2022-10-16T06:43:26;1.75;;;1.13;;
52734;SDS011;38631;47.572;10.704;2022-10-16T06:45:53;1.92;;;1.50;;
52734;SDS011;38631;47.572;10.704;2022-10-16T06:48:20;2.97;;;1.80;;
52734;SDS011;38631;47.572;10.704;2022-10-16T06:50:58;9.35;;;1.80;;
52734;SDS011;38631;47.572;10.704;2022-10-16T06:53:25;2.90;;;1.40;;
52734;SDS011;38631;47.572;10.704;2022-10-16T06:55:52;5.35;;;1.63;;
52734;SDS011;38631;47.572;10.704;2022-10-16T06:58:17;6.05;;;1.88;;
52734;SDS011;38631;47.572;10.704;2022-10-16T07:00:43;1.50;;;1.40;;
52734;SDS011;38631;47.572;10.704;2022-10-16T07:03:08;2.00;;;1.45;;
52734;SDS011;38631;47.572;10.704;2022-10-16T07:05:38;4.25;;;1.70;;
52734;SDS011;38631;47.572;10.704;2022-10-16T07:08:04;3.88;;;1.30;;
52734;SDS011;38631;47.572;10.704;2022-10-16T07:10:30;2.38;;;1.45;;
52734;SDS011;38631;47.572;10.704;2022-10-16T07:12:56;1.75;;;1.08;;
52734;SDS011;38631;47.572;10.704;2022-10-16T07:15:21;1.67;;;1.30;;
52734;SDS011;38631;47.572;10.704;2022-10-16T07:17:46;2.78;;;1.52;;
52734;SDS011;38631;47.572;10.704;2022-10-16T07:20:12;1.65;;;1.23;;
52734;SDS011;38631;47.572;10.704;2022-10-16T07:22:37;3.72;;;1.42;;
52734;SDS011;38631;47.572;10.704;2022-10-16T07:25:03;2.95;;;1.20;;
52734;SDS011;38631;47.572;10.704;2022-10-16T07:27:28;4.55;;;1.55;;
52734;SDS011;38631;47.572;10.704;2022-10-16T07:29:54;3.20;;;1.35;;
52734;SDS011;38631;47.572;10.704;2022-10-16T07:32:19;2.10;;;1.48;;
52734;SDS011;38631;47.572;10.704;2022-10-16T07:34:44;2.63;;;1.17;;
52734;SDS011;38631;47.572;10.704;2022-10-16T07:37:10;2.15;;;1.42;;
52734;SDS011;38631;47.572;10.704;2022-10-16T07:39:36;2.67;;;1.30;;
52734;SDS011;38631;47.572;10.704;2022-10-16T07:42:01;2.95;;;1.33;;
52734;SDS011;38631;47.572;10.704;2022-10-16T07:44:27;4.70;;;1.80;;
52734;SDS011;38631;47.572;10.704;2022-10-16T07:46:52;3.88;;;1.20;;
52734;SDS011;38631;47.572;10.704;2022-10-16T07:49:17;4.40;;;1.25;;
52734;SDS011;38631;47.572;10.704;2022-10-16T07:51:43;1.90;;;1.20;;
52734;SDS011;38631;47.572;10.704;2022-10-16T07:54:09;1.95;;;1.33;;
52734;SDS011;38631;47.572;10.704;2022-10-16T07:56:34;3.35;;;1.52;;
52734;SDS011;38631;47.572;10.704;2022-10-16T07:59:00;2.55;;;1.52;;
52734;SDS011;38631;47.572;10.704;2022-10-16T08:01:25;7.10;;;1.27;;
52734;SDS011;38631;47.572;10.704;2022-10-16T08:03:51;3.10;;;1.27;;
52734;SDS011;38631;47.572;10.704;2022-10-16T08:06:17;2.90;;;2.10;;
52734;SDS011;38631;47.572;10.704;2022-10-16T08:08:44;2.88;;;1.98;;
52734;SDS011;38631;47.572;10.704;2022-10-16T08:11:09;2.13;;;1.40;;
52734;SDS011;38631;47.572;10.704;2022-10-16T08:13:35;2.95;;;1.27;;
52734;SDS011;38631;47.572;10.704;2022-10-16T08:16:01;2.75;;;1.55;;
52734;SDS011;38631;47.572;10.704;2022-10-16T08:18:26;3.13;;;1.20;;
52734;SDS011;38631;47.572;10.704;2022-10-16T08:20:55;2.58;;;1.67;;
52734;SDS011;38631;47.572;10.704;2022-10-16T08:23:22;5.38;;;1.73;;
52734;SDS011;38631;47.572;10.704;2022-10-16T08:25:47;4.10;;;1.75;;
52734;SDS011;38631;47.572;10.704;2022-10-16T08:28:13;1.90;;;1.63;;
52734;SDS011;38631;47.572;10.704;2022-10-16T08:30:38;2.30;;;1.50;;
52734;SDS011;38631;47.572;10.704;2022-10-16T08:33:04;1.63;;;1.25;;
52734;SDS011;38631;47.572;10.704;2022-10-16T08:35:30;3.78;;;1.75;;
52734;SDS011;38631;47.572;10.704;2022-10-16T08:37:56;1.70;;;1.50;;
52734;SDS011;38631;47.572;10.704;2022-10-16T08:40:28;1.60;;;1.15;;
52734;SDS011;38631;47.572;10.704;2022-10-16T08:43:14;7.70;;;1.85;;
52734;SDS011;38631;47.572;10.704;2022-10-16T08:51:09;2.97;;;1.58;;
52734;SDS011;38631;47.572;10.704;2022-10-16T08:53:46;2.85;;;1.40;;
52734;SDS011;38631;47.572;10.704;2022-10-16T08:56:17;3.67;;;1.70;;
52734;SDS011;38631;47.572;10.704;2022-10-16T08:58:42;2.00;;;1.63;;
52734;SDS011;38631;47.572;10.704;2022-10-16T09:01:12;2.20;;;1.40;;
52734;SDS011;38631;47.572;10.704;2022-10-16T09:09:18;2.70;;;1.50;;
52734;SDS011;38631;47.572;10.704;2022-10-16T09:23:12;4.03;;;1.30;;
52734;SDS011;38631;47.572;10.704;2022-10-16T09:25:41;3.05;;;1.60;;
52734;SDS011;38631;47.572;10.704;2022-10-16T09:28:09;4.80;;;1.83;;
52734;SDS011;38631;47.572;10.704;2022-10-16T09:30:35;3.25;;;1.50;;
52734;SDS011;38631;47.572;10.704;2022-10-16T09:33:00;4.40;;;1.50;;
52734;SDS011;38631;47.572;10.704;2022-10-16T09:35:31;2.92;;;1.42;;
52734;SDS011;38631;47.572;10.704;2022-10-16T09:38:00;5.82;;;1.95;;
52734;SDS011;38631;47.572;10.704;2022-10-16T09:40:30;2.08;;;1.52;;
52734;SDS011;38631;47.572;10.704;2022-10-16T09:48:11;4.10;;;2.35;;
52734;SDS011;38631;47.572;10.704;2022-10-16T09:50:37;3.13;;;2.10;;
52734;SDS011;38631;47.572;10.704;2022-10-16T09:53:13;3.30;;;1.73;;
52734;SDS011;38631;47.572;10.704;2022-10-16T09:55:49;9.65;;;1.92;;
52734;SDS011;38631;47.572;10.704;2022-10-16T09:58:15;2.05;;;1.67;;
52734;SDS011;38631;47.572;10.704;2022-10-16T10:00:41;1.90;;;1.55;;
52734;SDS011;38631;47.572;10.704;2022-10-16T10:03:15;4.88;;;1.52;;
52734;SDS011;38631;47.572;10.704;2022-10-16T10:05:51;4.00;;;1.58;;
52734;SDS011;38631;47.572;10.704;2022-10-16T10:08:17;3.25;;;2.15;;
52734;SDS011;38631;47.572;10.704;2022-10-16T10:10:43;1.90;;;1.35;;
52734;SDS011;38631;47.572;10.704;2022-10-16T10:13:19;4.47;;;1.75;;
52734;SDS011;38631;47.572;10.704;2022-10-16T10:15:45;3.00;;;1.75;;
52734;SDS011;38631;47.572;10.704;2022-10-16T10:18:20;2.15;;;1.40;;
52734;SDS011;38631;47.572;10.704;2022-10-16T10:21:01;2.28;;;1.50;;
52734;SDS011;38631;47.572;10.704;2022-10-16T10:23:28;2.65;;;1.50;;
52734;SDS011;38631;47.572;10.704;2022-10-16T10:28:58;2.42;;;1.23;;
52734;SDS011;38631;47.572;10.704;2022-10-16T10:32:01;2.57;;;1.20;;
52734;SDS011;38631;47.572;10.704;2022-10-16T10:37:04;2.88;;;1.75;;
52734;SDS011;38631;47.572;10.704;2022-10-16T10:39:57;3.72;;;1.83;;
52734;SDS011;38631;47.572;10.704;2022-10-16T10:45:43;1.38;;;1.08;;
52734;SDS011;38631;47.572;10.704;2022-10-16T10:50:45;3.72;;;1.52;;
52734;SDS011;38631;47.572;10.704;2022-10-16T11:05:02;1.90;;;1.10;;
52734;SDS011;38631;47.572;10.704;2022-10-16T11:08:46;1.30;;;1.10;;
52734;SDS011;38631;47.572;10.704;2022-10-16T11:14:06;3.75;;;1.27;;
52734;SDS011;38631;47.572;10.704;2022-10-16T11:16:39;1.63;;;1.42;;
52734;SDS011;38631;47.572;10.704;2022-10-16T11:30:46;2.45;;;0.80;;
52734;SDS011;38631;47.572;10.704;2022-10-16T11:36:15;1.40;;;0.50;;
52734;SDS011;38631;47.572;10.704;2022-10-16T11:38:48;0.93;;;0.50;;
52734;SDS011;38631;47.572;10.704;2022-10-16T11:41:34;2.42;;;0.70;;
52734;SDS011;38631;47.572;10.704;2022-10-16T11:47:09;1.15;;;0.57;;
52734;SDS011;38631;47.572;10.704;2022-10-16T11:49:32;2.15;;;0.60;;
52734;SDS011;38631;47.572;10.704;2022-10-16T11:57:31;0.85;;;0.50;;
52734;SDS011;38631;47.572;10.704;2022-10-16T12:00:08;1.20;;;0.75;;
52734;SDS011;38631;47.572;10.704;2022-10-16T12:03:09;0.85;;;0.40;;
52734;SDS011;38631;47.572;10.704;2022-10-16T12:05:58;1.00;;;0.70;;
52734;SDS011;38631;47.572;10.704;2022-10-16T12:08:36;1.02;;;0.50;;
52734;SDS011;38631;47.572;10.704;2022-10-16T12:11:07;1.02;;;0.70;;
52734;SDS011;38631;47.572;10.704;2022-10-16T12:13:51;1.00;;;0.60;;
52734;SDS011;38631;47.572;10.704;2022-10-16T12:18:42;1.00;;;0.50;;
52734;SDS011;38631;47.572;10.704;2022-10-16T12:21:09;1.10;;;0.77;;
52734;SDS011;38631;47.572;10.704;2022-10-16T12:24:18;1.25;;;0.68;;
52734;SDS011;38631;47.572;10.704;2022-10-16T12:26:34;1.10;;;0.60;;
52734;SDS011;38631;47.572;10.704;2022-10-16T12:29:12;1.17;;;0.52;;
52734;SDS011;38631;47.572;10.704;2022-10-16T12:31:46;1.95;;;0.60;;
52734;SDS011;38631;47.572;10.704;2022-10-16T12:34:14;1.50;;;0.50;;
52734;SDS011;38631;47.572;10.704;2022-10-16T12:36:48;3.35;;;0.70;;
52734;SDS011;38631;47.572;10.704;2022-10-16T12:39:23;1.35;;;0.70;;
52734;SDS011;38631;47.572;10.704;2022-10-16T12:42:02;0.80;;;0.60;;
52734;SDS011;38631;47.572;10.704;2022-10-16T12:44:33;1.20;;;0.52;;
52734;SDS011;38631;47.572;10.704;2022-10-16T12:47:00;0.82;;;0.55;;
52734;SDS011;38631;47.572;10.704;2022-10-16T12:49:48;1.88;;;0.50;;
52734;SDS011;38631;47.572;10.704;2022-10-16T12:52:29;0.93;;;0.55;;
52734;SDS011;38631;47.572;10.704;2022-10-16T12:55:01;1.90;;;1.30;;
52734;SDS011;38631;47.572;10.704;2022-10-16T13:00:18;0.73;;;0.40;;
52734;SDS011;38631;47.572;10.704;2022-10-16T13:11:02;1.77;;;0.68;;
52734;SDS011;38631;47.572;10.704;2022-10-16T13:25:33;1.58;;;0.57;;
52734;SDS011;38631;47.572;10.704;2022-10-16T13:28:08;1.00;;;0.50;;
52734;SDS011;38631;47.572;10.704;2022-10-16T13:30:43;0.65;;;0.50;;
52734;SDS011;38631;47.572;10.704;2022-10-16T13:33:30;0.75;;;0.47;;
52734;SDS011;38631;47.572;10.704;2022-10-16T13:36:00;1.17;;;0.70;;
52734;SDS011;38631;47.572;10.704;2022-10-16T13:38:27;0.60;;;0.40;;
52734;SDS011;38631;47.572;10.704;2022-10-16T13:40:56;4.10;;;0.55;;
52734;SDS011;38631;47.572;10.704;2022-10-16T13:43:31;2.45;;;0.75;;
52734;SDS011;38631;47.572;10.704;2022-10-16T13:46:02;1.67;;;0.50;;
52734;SDS011;38631;47.572;10.704;2022-10-16T13:48:30;1.17;;;0.50;;
52734;SDS011;38631;47.572;10.704;2022-10-16T13:51:00;0.65;;;0.40;;
52734;SDS011;38631;47.572;10.704;2022-10-16T13:53:39;1.15;;;0.40;;
52734;SDS011;38631;47.572;10.704;2022-10-16T13:56:06;2.17;;;0.70;;
52734;SDS011;38631;47.572;10.704;2022-10-16T13:58:36;1.23;;;0.70;;
52734;SDS011;38631;47.572;10.704;2022-10-16T14:01:06;2.08;;;0.50;;
52734;SDS011;38631;47.572;10.704;2022-10-16T14:03:45;1.13;;;0.40;;
52734;SDS011;38631;47.572;10.704;2022-10-16T14:06:13;1.88;;;0.68;;
52734;SDS011;38631;47.572;10.704;2022-10-16T14:08:42;0.80;;;0.50;;
52734;SDS011;38631;47.572;10.704;2022-10-16T14:11:09;4.10;;;0.70;;
52734;SDS011;38631;47.572;10.704;2022-10-16T14:13:53;2.30;;;0.60;;
52734;SDS011;38631;47.572;10.704;2022-10-16T14:16:21;5.40;;;0.73;;
52734;SDS011;38631;47.572;10.704;2022-10-16T14:18:57;1.30;;;0.50;;
52734;SDS011;38631;47.572;10.704;2022-10-16T14:21:26;3.72;;;0.60;;
52734;SDS011;38631;47.572;10.704;2022-10-16T14:23:52;0.90;;;0.50;;
52734;SDS011;38631;47.572;10.704;2022-10-16T14:26:19;1.10;;;0.70;;
52734;SDS011;38631;47.572;10.704;2022-10-16T14:28:47;1.20;;;0.60;;
52734;SDS011;38631;47.572;10.704;2022-10-16T14:31:35;1.02;;;0.80;;
52734;SDS011;38631;47.572;10.704;2022-10-16T14:34:01;0.90;;;0.52;;
52734;SDS011;38631;47.572;10.704;2022-10-16T14:36:27;2.08;;;0.70;;
52734;SDS011;38631;47.572;10.704;2022-10-16T14:39:13;1.08;;;0.55;;
52734;SDS011;38631;47.572;10.704;2022-10-16T14:41:45;1.40;;;0.80;;
52734;SDS011;38631;47.572;10.704;2022-10-16T14:44:12;1.33;;;0.57;;
52734;SDS011;38631;47.572;10.704;2022-10-16T14:46:42;1.02;;;0.50;;
52734;SDS011;38631;47.572;10.704;2022-10-16T14:51:34;2.53;;;0.93;;
52734;SDS011;38631;47.572;10.704;2022-10-16T14:54:01;3.90;;;2.47;;
52734;SDS011;38631;47.572;10.704;2022-10-16T14:59:17;1.48;;;0.55;;
52734;SDS011;38631;47.572;10.704;2022-10-16T15:01:50;1.10;;;0.50;;
52734;SDS011;38631;47.572;10.704;2022-10-16T15:04:15;1.65;;;0.80;;
52734;SDS011;38631;47.572;10.704;2022-10-16T15:06:41;2.45;;;0.60;;
52734;SDS011;38631;47.572;10.704;2022-10-16T15:09:07;1.73;;;1.00;;
52734;SDS011;38631;47.572;10.704;2022-10-16T15:11:33;2.35;;;0.75;;
52734;SDS011;38631;47.572;10.704;2022-10-16T15:13:59;2.10;;;1.30;;
52734;SDS011;38631;47.572;10.704;2022-10-16T15:16:24;3.03;;;1.63;;
52734;SDS011;38631;47.572;10.704;2022-10-16T15:18:49;1.98;;;1.38;;
52734;SDS011;38631;47.572;10.704;2022-10-16T15:21:25;1.88;;;1.00;;
52734;SDS011;38631;47.572;10.704;2022-10-16T15:23:53;1.42;;;1.00;;
52734;SDS011;38631;47.572;10.704;2022-10-16T15:26:19;3.05;;;0.77;;
52734;SDS011;38631;47.572;10.704;2022-10-16T15:28:44;2.50;;;0.70;;
52734;SDS011;38631;47.572;10.704;2022-10-16T15:31:10;1.60;;;0.60;;
52734;SDS011;38631;47.572;10.704;2022-10-16T15:33:35;1.30;;;0.75;;
52734;SDS011;38631;47.572;10.704;2022-10-16T15:36:01;3.17;;;0.60;;
52734;SDS011;38631;47.572;10.704;2022-10-16T15:38:27;1.95;;;0.60;;
52734;SDS011;38631;47.572;10.704;2022-10-16T15:40:54;1.30;;;0.60;;
52734;SDS011;38631;47.572;10.704;2022-10-16T15:43:20;1.67;;;0.50;;
52734;SDS011;38631;47.572;10.704;2022-10-16T15:46:19;1.15;;;0.57;;
52734;SDS011;38631;47.572;10.704;2022-10-16T15:48:39;1.85;;;0.60;;
52734;SDS011;38631;47.572;10.704;2022-10-16T15:51:05;1.35;;;0.75;;
52734;SDS011;38631;47.572;10.704;2022-10-16T15:53:32;1.35;;;0.90;;
52734;SDS011;38631;47.572;10.704;2022-10-16T15:56:01;0.80;;;0.63;;
52734;SDS011;38631;47.572;10.704;2022-10-16T15:58:27;1.60;;;0.70;;
52734;SDS011;38631;47.572;10.704;2022-10-16T16:00:56;1.05;;;0.60;;
52734;SDS011;38631;47.572;10.704;2022-10-16T16:03:25;0.70;;;0.55;;
52734;SDS011;38631;47.572;10.704;2022-10-16T16:05:51;0.90;;;0.60;;
52734;SDS011;38631;47.572;10.704;2022-10-16T16:08:16;1.35;;;0.77;;
52734;SDS011;38631;47.572;10.704;2022-10-16T16:10:41;1.17;;;0.43;;
52734;SDS011;38631;47.572;10.704;2022-10-16T16:13:07;2.05;;;0.93;;
52734;SDS011;38631;47.572;10.704;2022-10-16T16:15:32;3.13;;;0.60;;
52734;SDS011;38631;47.572;10.704;2022-10-16T16:17:58;2.63;;;0.77;;
52734;SDS011;38631;47.572;10.704;2022-10-16T16:20:23;1.20;;;0.70;;
52734;SDS011;38631;47.572;10.704;2022-10-16T16:22:48;2.72;;;1.15;;
52734;SDS011;38631;47.572;10.704;2022-10-16T16:25:14;3.38;;;0.85;;
52734;SDS011;38631;47.572;10.704;2022-10-16T16:27:39;4.07;;;0.93;;
52734;SDS011;38631;47.572;10.704;2022-10-16T16:30:05;3.25;;;1.05;;
52734;SDS011;38631;47.572;10.704;2022-10-16T16:32:32;4.22;;;1.10;;
52734;SDS011;38631;47.572;10.704;2022-10-16T16:34:59;2.38;;;1.58;;
52734;SDS011;38631;47.572;10.704;2022-10-16T16:37:25;3.35;;;1.08;;
52734;SDS011;38631;47.572;10.704;2022-10-16T16:39:50;2.67;;;1.42;;
52734;SDS011;38631;47.572;10.704;2022-10-16T16:42:16;3.00;;;1.95;;
52734;SDS011;38631;47.572;10.704;2022-10-16T16:44:41;4.70;;;2.60;;
52734;SDS011;38631;47.572;10.704;2022-10-16T16:47:07;4.47;;;2.97;;
52734;SDS011;38631;47.572;10.704;2022-10-16T16:49:32;4.38;;;2.92;;